Time;durP1;ratioP1;P1;durP2;ratioP2;P2;SDS_P1;SDS_P2;PMS_P1;PMS_P2;Temp;Humidity;BMP_temperature;BMP_pressure;BME280_temperature;BME280_humidity;BME280_pressure;Samples;Min_cycle;Max_cycle;Signal;HPM_P1;HPM_P2
2023/01/22 00:01:28;;;;;;;8.80;4.00;;;1.70;99.90;;;;;;5090102;28;20460;-71
2023/01/22 00:03:53;;;;;;;9.47;5.10;;;1.80;99.90;;;;;;5091460;28;20246;-71
2023/01/22 00:06:19;;;;;;;12.97;5.90;;;1.80;99.90;;;;;;5075373;28;20217;-71
2023/01/22 00:08:47;;;;;;;7.50;4.13;;;1.80;99.90;;;;;;5098575;28;20225;-71
2023/01/22 00:11:14;;;;;;;10.87;5.23;;;1.80;99.90;;;;;;5074398;28;20460;-70
2023/01/22 00:13:40;;;;;;;10.77;4.90;;;1.70;99.90;;;;;;5058755;28;20450;-71
2023/01/22 00:16:06;;;;;;;9.20;6.10;;;1.70;99.90;;;;;;5059393;28;20447;-71
2023/01/22 00:18:32;;;;;;;19.13;7.13;;;1.70;99.90;;;;;;5066615;28;20254;-71
2023/01/22 00:20:58;;;;;;;11.67;5.00;;;1.70;99.90;;;;;;5076870;28;20474;-71
2023/01/22 00:23:24;;;;;;;10.00;5.83;;;1.70;99.90;;;;;;5074007;28;20462;-71
2023/01/22 00:26:00;;;;;;;10.67;5.60;;;1.70;99.90;;;;;;5085359;28;20452;-71
2023/01/22 00:28:26;;;;;;;10.10;5.80;;;1.70;99.90;;;;;;5058658;28;20218;-70
2023/01/22 00:31:02;;;;;;;9.73;6.13;;;1.70;99.90;;;;;;5090855;28;20509;-71
2023/01/22 00:33:28;;;;;;;12.37;5.27;;;1.80;99.90;;;;;;5082678;28;20250;-71
2023/01/22 00:35:54;;;;;;;6.67;4.57;;;1.80;99.90;;;;;;5066563;28;20484;-71
2023/01/22 00:38:23;;;;;;;9.10;4.30;;;1.80;99.90;;;;;;5069854;28;20453;-72
2023/01/22 00:40:48;;;;;;;7.57;5.03;;;1.80;99.90;;;;;;5064749;28;20461;-70
2023/01/22 00:43:14;;;;;;;10.13;4.30;;;1.80;99.90;;;;;;5090474;28;20520;-71
2023/01/22 00:45:40;;;;;;;9.37;4.93;;;1.70;99.90;;;;;;5076230;28;20257;-71
2023/01/22 00:48:05;;;;;;;4.97;3.40;;;1.80;99.90;;;;;;5077468;28;20695;-71
2023/01/22 00:50:31;;;;;;;9.07;4.87;;;1.70;99.90;;;;;;5096588;28;20239;-71
2023/01/22 00:52:58;;;;;;;8.40;4.13;;;1.70;99.90;;;;;;5096917;28;20227;-71
2023/01/22 00:55:23;;;;;;;12.90;5.73;;;1.70;99.90;;;;;;5077712;28;20464;-71
2023/01/22 00:57:49;;;;;;;8.33;4.10;;;1.80;99.90;;;;;;5059553;28;20222;-71
2023/01/22 01:00:16;;;;;;;4.80;3.27;;;1.70;99.90;;;;;;5064129;28;20238;-71
2023/01/22 01:05:30;;;;;;;9.40;4.20;;;1.70;99.90;;;;;;5081154;28;20590;-71
2023/01/22 01:07:55;;;;;;;6.27;3.53;;;1.80;99.90;;;;;;5080940;28;20587;-70
2023/01/22 01:10:21;;;;;;;5.97;4.03;;;1.80;99.90;;;;;;5091311;28;20268;-71
2023/01/22 01:12:47;;;;;;;7.40;3.50;;;1.80;99.90;;;;;;5074940;28;20227;-71
2023/01/22 01:15:12;;;;;;;5.00;3.50;;;1.70;99.90;;;;;;5082721;28;20249;-71
2023/01/22 01:17:38;;;;;;;6.07;3.70;;;1.70;99.90;;;;;;5069086;28;20214;-71
2023/01/22 01:20:04;;;;;;;14.30;4.60;;;1.70;99.90;;;;;;5075188;28;20544;-70
2023/01/22 01:22:30;;;;;;;7.50;4.40;;;1.70;99.90;;;;;;5077902;28;20265;-71
2023/01/22 01:24:55;;;;;;;7.60;3.53;;;1.70;99.90;;;;;;5069835;28;20525;-72
2023/01/22 01:27:21;;;;;;;4.30;3.60;;;1.70;99.90;;;;;;5058313;28;20214;-72
2023/01/22 01:29:47;;;;;;;6.43;3.60;;;1.80;99.90;;;;;;5050455;28;20216;-71
2023/01/22 01:32:12;;;;;;;6.90;3.93;;;1.70;99.90;;;;;;5093371;28;20218;-71
2023/01/22 01:34:38;;;;;;;7.03;3.90;;;1.70;99.90;;;;;;5085017;28;20241;-71
2023/01/22 01:37:03;;;;;;;6.97;4.27;;;1.70;99.90;;;;;;5064818;28;20299;-71
2023/01/22 01:39:29;;;;;;;7.40;4.93;;;1.70;99.90;;;;;;5075121;28;20222;-71
2023/01/22 01:41:55;;;;;;;4.10;3.20;;;1.70;99.90;;;;;;5080302;28;20219;-71
2023/01/22 01:44:22;;;;;;;8.00;4.73;;;1.70;99.90;;;;;;5075915;28;20226;-71
2023/01/22 01:47:00;;;;;;;8.80;4.50;;;1.70;99.90;;;;;;5080601;28;20231;-71
2023/01/22 01:49:30;;;;;;;6.37;3.87;;;1.70;99.90;;;;;;5075078;28;20454;-72
2023/01/22 01:52:00;;;;;;;5.37;3.77;;;1.70;99.90;;;;;;5089717;28;20477;-72
2023/01/22 01:54:28;;;;;;;8.30;4.10;;;1.70;99.90;;;;;;5063315;28;20469;-71
2023/01/22 01:57:00;;;;;;;6.27;3.77;;;1.70;99.90;;;;;;5077710;28;20445;-71
2023/01/22 01:59:26;;;;;;;5.57;3.83;;;1.70;99.90;;;;;;5090066;28;20443;-72
2023/01/22 02:01:54;;;;;;;8.10;4.53;;;1.70;99.90;;;;;;5066337;28;20437;-71
2023/01/22 02:04:21;;;;;;;8.83;5.03;;;1.70;99.90;;;;;;5080643;28;20455;-71
2023/01/22 02:06:47;;;;;;;6.77;3.70;;;1.70;99.90;;;;;;5073993;28;20469;-71
2023/01/22 02:09:13;;;;;;;7.43;4.37;;;1.70;99.90;;;;;;5058710;28;20439;-72
2023/01/22 02:11:39;;;;;;;5.13;4.00;;;1.70;99.90;;;;;;5084225;28;20235;-71
2023/01/22 02:14:10;;;;;;;6.50;4.63;;;1.70;99.90;;;;;;5067266;28;20472;-71
2023/01/22 02:16:36;;;;;;;10.90;4.43;;;1.70;99.90;;;;;;5045884;28;20271;-71
2023/01/22 02:19:03;;;;;;;7.23;4.00;;;1.70;99.90;;;;;;5062495;28;20516;-71
2023/01/22 02:21:42;;;;;;;11.20;4.67;;;1.70;99.90;;;;;;5060732;28;20629;-71
2023/01/22 02:24:13;;;;;;;8.10;3.83;;;1.70;99.90;;;;;;5085047;28;20456;-71
2023/01/22 02:26:40;;;;;;;6.30;4.17;;;1.70;99.90;;;;;;5052291;28;20587;-71
2023/01/22 02:29:08;;;;;;;6.10;3.90;;;1.70;99.90;;;;;;5097186;27;20475;-72
2023/01/22 02:31:36;;;;;;;5.40;3.30;;;1.70;99.90;;;;;;5066150;28;20500;-72
2023/01/22 02:34:02;;;;;;;6.77;3.80;;;1.60;99.90;;;;;;5101610;28;20461;-71
2023/01/22 02:36:30;;;;;;;6.43;4.00;;;1.70;99.90;;;;;;5085257;28;20463;-71
2023/01/22 02:38:56;;;;;;;7.50;4.40;;;1.70;99.90;;;;;;5096138;28;21058;-72
2023/01/22 02:41:22;;;;;;;5.90;3.73;;;1.70;99.90;;;;;;5068443;28;20452;-71
2023/01/22 02:43:48;;;;;;;13.23;4.80;;;1.70;99.90;;;;;;5068287;28;20219;-71
2023/01/22 02:46:14;;;;;;;7.57;4.00;;;1.60;99.90;;;;;;5087260;28;20500;-71
2023/01/22 02:48:39;;;;;;;5.37;3.93;;;1.70;99.90;;;;;;5086279;28;20444;-70
2023/01/22 02:51:05;;;;;;;6.33;3.77;;;1.70;99.90;;;;;;5070843;28;20230;-71
2023/01/22 02:53:31;;;;;;;5.77;3.63;;;1.70;99.90;;;;;;5080930;28;20813;-71
2023/01/22 02:55:58;;;;;;;7.97;4.07;;;1.70;99.90;;;;;;5067600;28;20234;-71
2023/01/22 02:58:23;;;;;;;4.53;3.00;;;1.70;99.90;;;;;;5076387;28;20491;-71
2023/01/22 03:00:49;;;;;;;9.20;4.37;;;1.70;99.90;;;;;;5080977;28;20309;-71
2023/01/22 03:03:17;;;;;;;6.30;3.90;;;1.70;99.90;;;;;;5075714;28;20313;-71
2023/01/22 03:05:47;;;;;;;6.87;4.17;;;1.70;99.90;;;;;;5075068;28;20615;-71
2023/01/22 03:08:13;;;;;;;6.20;4.10;;;1.70;99.90;;;;;;5055426;28;20460;-70
2023/01/22 03:10:39;;;;;;;6.13;3.80;;;1.60;99.90;;;;;;5071960;28;20973;-71
2023/01/22 03:21:20;;;;;;;6.43;3.57;;;1.70;99.90;;;;;;5091759;28;20522;-71
2023/01/22 03:23:49;;;;;;;5.70;3.50;;;1.70;99.90;;;;;;5083561;28;20449;-71
2023/01/22 03:26:17;;;;;;;5.83;3.93;;;1.70;99.90;;;;;;5084554;28;20216;-71
2023/01/22 03:28:44;;;;;;;4.27;3.10;;;1.70;99.90;;;;;;5068071;28;20449;-71
2023/01/22 03:31:11;;;;;;;4.13;3.70;;;1.70;99.90;;;;;;5090625;28;20459;-71
2023/01/22 03:33:36;;;;;;;4.70;3.00;;;1.70;99.90;;;;;;5073056;28;20521;-71
2023/01/22 03:36:08;;;;;;;4.90;3.77;;;1.70;99.90;;;;;;5093392;28;20453;-71
2023/01/22 03:38:36;;;;;;;8.67;4.67;;;1.70;99.90;;;;;;5087980;28;22040;-71
2023/01/22 03:41:04;;;;;;;7.83;3.30;;;1.70;99.90;;;;;;5088121;28;20468;-71
2023/01/22 03:43:31;;;;;;;5.70;2.90;;;1.70;99.90;;;;;;5070633;28;20467;-71
2023/01/22 03:46:02;;;;;;;6.30;3.50;;;1.70;99.90;;;;;;5067060;28;20469;-72
2023/01/22 03:48:28;;;;;;;4.60;3.10;;;1.70;99.90;;;;;;5072577;28;20452;-71
2023/01/22 03:50:54;;;;;;;7.73;4.27;;;1.70;99.90;;;;;;5089171;28;20488;-71
2023/01/22 03:53:20;;;;;;;7.50;4.20;;;1.70;99.90;;;;;;5072863;28;20515;-71
2023/01/22 03:55:56;;;;;;;4.87;3.50;;;1.70;99.90;;;;;;5070268;28;20213;-72
2023/01/22 03:58:21;;;;;;;9.50;3.83;;;1.70;99.90;;;;;;5071743;28;20479;-71
2023/01/22 04:00:47;;;;;;;6.80;3.20;;;1.70;99.90;;;;;;5079028;28;20484;-71
2023/01/22 04:03:13;;;;;;;7.00;3.30;;;1.70;99.90;;;;;;5074398;28;20208;-71
2023/01/22 04:05:39;;;;;;;5.47;3.73;;;1.70;99.90;;;;;;5076198;28;20707;-70
2023/01/22 04:08:05;;;;;;;5.27;3.23;;;1.70;99.90;;;;;;5095200;28;20588;-72
2023/01/22 04:10:33;;;;;;;5.17;3.50;;;1.70;99.90;;;;;;5064803;28;20272;-71
2023/01/22 04:13:01;;;;;;;9.53;4.07;;;1.70;99.90;;;;;;5076934;28;20449;-71
2023/01/22 04:15:26;;;;;;;3.93;2.80;;;1.70;99.90;;;;;;5080553;28;20460;-71
2023/01/22 04:17:54;;;;;;;5.93;3.53;;;1.70;99.90;;;;;;5076088;28;20231;-71
2023/01/22 04:20:40;;;;;;;9.60;3.60;;;1.70;99.90;;;;;;5085150;28;20453;-71
2023/01/22 04:23:24;;;;;;;4.87;3.77;;;1.70;99.90;;;;;;5079004;28;20464;-71
2023/01/22 04:25:51;;;;;;;4.20;3.20;;;1.70;99.90;;;;;;5107497;27;20452;-71
2023/01/22 04:28:18;;;;;;;4.90;3.43;;;1.70;99.90;;;;;;5090657;28;20461;-71
2023/01/22 04:30:51;;;;;;;3.63;3.00;;;1.70;99.90;;;;;;5077116;28;20524;-71
2023/01/22 04:33:39;;;;;;;5.47;3.27;;;1.70;99.90;;;;;;5100012;28;20934;-70
2023/01/22 04:36:09;;;;;;;5.30;3.53;;;1.70;99.90;;;;;;5074374;28;20471;-70
2023/01/22 04:38:35;;;;;;;4.50;2.50;;;1.70;99.90;;;;;;5066574;28;20477;-71
2023/01/22 04:41:01;;;;;;;5.57;3.10;;;1.70;99.90;;;;;;5058856;28;20521;-71
2023/01/22 04:43:27;;;;;;;9.10;3.50;;;1.70;99.90;;;;;;5099799;28;20948;-71
2023/01/22 04:45:53;;;;;;;6.00;4.17;;;1.70;99.90;;;;;;5072866;28;20207;-71
2023/01/22 04:48:23;;;;;;;6.17;4.33;;;1.70;99.90;;;;;;5072395;28;20281;-71
2023/01/22 04:50:49;;;;;;;4.00;2.13;;;1.70;99.90;;;;;;5086836;28;20488;-71
2023/01/22 04:53:15;;;;;;;3.47;3.00;;;1.70;99.90;;;;;;5084905;28;20221;-71
2023/01/22 04:55:41;;;;;;;6.43;3.10;;;1.70;99.90;;;;;;5079434;28;20238;-70
2023/01/22 04:58:08;;;;;;;5.90;3.70;;;1.70;99.90;;;;;;5080766;28;20272;-71
2023/01/22 05:00:34;;;;;;;4.53;3.07;;;1.70;99.90;;;;;;5086907;28;20457;-71
2023/01/22 05:03:03;;;;;;;4.27;2.87;;;1.70;99.90;;;;;;5073593;28;20559;-71
2023/01/22 05:05:31;;;;;;;5.40;3.43;;;1.70;99.90;;;;;;5067311;28;20444;-71
2023/01/22 05:07:57;;;;;;;4.47;2.97;;;1.70;99.90;;;;;;5077382;28;20445;-71
2023/01/22 05:10:23;;;;;;;7.57;4.03;;;1.70;99.90;;;;;;5080690;28;20969;-71
2023/01/22 05:12:48;;;;;;;3.67;2.77;;;1.70;99.90;;;;;;5084410;28;20471;-71
2023/01/22 05:15:15;;;;;;;4.03;3.27;;;1.60;99.90;;;;;;5099065;28;20214;-71
2023/01/22 05:17:41;;;;;;;6.10;3.43;;;1.70;99.90;;;;;;5090447;28;20210;-71
2023/01/22 05:20:08;;;;;;;4.43;2.80;;;1.60;99.90;;;;;;5090602;28;20493;-71
2023/01/22 05:22:33;;;;;;;5.37;3.70;;;1.70;99.90;;;;;;5102339;27;20218;-71
2023/01/22 05:24:59;;;;;;;4.43;2.60;;;1.60;99.90;;;;;;5079426;28;20474;-71
2023/01/22 05:27:25;;;;;;;3.33;2.30;;;1.70;99.90;;;;;;5071467;28;20207;-71
2023/01/22 05:29:58;;;;;;;3.97;2.67;;;1.70;99.90;;;;;;5070812;28;20452;-71
2023/01/22 05:32:37;;;;;;;2.27;2.03;;;1.70;99.90;;;;;;5088342;28;20432;-71
2023/01/22 05:35:04;;;;;;;3.33;2.67;;;1.70;99.90;;;;;;5074905;28;20451;-71
2023/01/22 05:37:31;;;;;;;3.37;2.60;;;1.60;99.90;;;;;;5085916;28;20449;-71
2023/01/22 05:39:56;;;;;;;7.30;4.00;;;1.60;99.90;;;;;;5089223;28;20489;-71
2023/01/22 05:42:22;;;;;;;4.70;2.40;;;1.70;99.90;;;;;;5077758;28;20486;-71
2023/01/22 05:44:49;;;;;;;4.77;3.17;;;1.60;99.90;;;;;;5073398;28;20535;-71
2023/01/22 05:47:18;;;;;;;4.63;2.87;;;1.60;99.90;;;;;;5069931;28;20445;-71
2023/01/22 05:49:43;;;;;;;3.47;2.70;;;1.70;99.90;;;;;;5091602;28;20440;-71
2023/01/22 05:52:12;;;;;;;4.03;3.03;;;1.60;99.90;;;;;;5082487;28;20210;-71
2023/01/22 05:54:38;;;;;;;3.93;2.73;;;1.70;99.90;;;;;;5098343;28;20919;-71
2023/01/22 05:57:04;;;;;;;4.67;2.77;;;1.70;99.90;;;;;;5069353;28;20453;-71
2023/01/22 05:59:31;;;;;;;3.90;2.70;;;1.60;99.90;;;;;;5088810;28;20199;-71
2023/01/22 06:02:00;;;;;;;6.20;3.67;;;1.60;99.90;;;;;;5095048;28;21082;-71
2023/01/22 06:04:26;;;;;;;3.37;2.20;;;1.60;99.90;;;;;;5066670;28;20528;-71
2023/01/22 06:06:52;;;;;;;4.73;3.00;;;1.60;99.90;;;;;;5058495;28;20304;-71
2023/01/22 06:09:20;;;;;;;3.90;3.17;;;1.60;99.90;;;;;;5074506;28;20471;-71
2023/01/22 06:11:46;;;;;;;3.53;2.60;;;1.60;99.90;;;;;;5082629;28;20936;-71
2023/01/22 06:14:12;;;;;;;3.43;2.93;;;1.70;99.90;;;;;;5074193;28;20612;-70
2023/01/22 06:16:38;;;;;;;3.80;2.80;;;1.70;99.90;;;;;;5074045;28;20443;-71
2023/01/22 06:19:04;;;;;;;4.13;3.27;;;1.70;99.90;;;;;;5072430;28;20210;-71
2023/01/22 06:21:42;;;;;;;4.87;2.60;;;1.70;99.90;;;;;;5072689;28;20235;-71
2023/01/22 06:24:09;;;;;;;2.90;1.83;;;1.70;99.90;;;;;;5064953;28;20448;-71
2023/01/22 06:26:35;;;;;;;7.50;3.10;;;1.60;99.90;;;;;;5094603;28;20540;-71
2023/01/22 06:29:01;;;;;;;3.27;2.10;;;1.60;99.90;;;;;;5099431;28;20564;-71
2023/01/22 06:31:28;;;;;;;3.33;2.10;;;1.70;99.90;;;;;;5074484;28;20467;-71
2023/01/22 06:33:54;;;;;;;3.83;3.00;;;1.70;99.90;;;;;;5097848;28;20580;-70
2023/01/22 06:36:20;;;;;;;3.37;2.63;;;1.70;99.90;;;;;;5086770;28;20505;-71
2023/01/22 06:38:46;;;;;;;5.07;2.60;;;1.70;99.90;;;;;;5087423;28;20207;-71
2023/01/22 06:41:17;;;;;;;2.67;2.30;;;1.60;99.90;;;;;;5066158;28;20994;-71
2023/01/22 06:43:43;;;;;;;4.40;2.90;;;1.70;99.90;;;;;;5065597;28;20440;-71
2023/01/22 06:46:09;;;;;;;3.40;2.73;;;1.70;99.90;;;;;;5081031;28;20454;-69
2023/01/22 06:49:09;;;;;;;4.53;2.57;;;1.60;99.90;;;;;;5085100;28;20225;-71
2023/01/22 06:51:35;;;;;;;3.97;2.47;;;1.60;99.90;;;;;;5094992;28;20552;-70
2023/01/22 06:54:00;;;;;;;3.13;2.37;;;1.70;99.90;;;;;;5061478;28;20548;-71
2023/01/22 06:56:27;;;;;;;2.50;2.30;;;1.70;99.90;;;;;;5071209;28;20207;-70
2023/01/22 06:58:54;;;;;;;3.70;3.17;;;1.70;99.90;;;;;;5059987;28;20478;-71
2023/01/22 07:01:20;;;;;;;3.93;2.57;;;1.70;99.90;;;;;;5077164;28;20530;-70
2023/01/22 07:03:46;;;;;;;5.37;3.00;;;1.70;99.90;;;;;;5098145;27;20302;-69
2023/01/22 07:06:13;;;;;;;5.07;3.20;;;1.70;99.90;;;;;;5081170;28;20270;-70
2023/01/22 07:08:40;;;;;;;3.53;2.53;;;1.60;99.90;;;;;;5088591;28;20216;-71
2023/01/22 07:11:05;;;;;;;3.50;2.60;;;1.60;99.90;;;;;;5075536;28;20492;-72
2023/01/22 07:13:31;;;;;;;4.70;3.17;;;1.70;99.90;;;;;;5072943;28;20501;-70
2023/01/22 07:16:01;;;;;;;5.10;3.00;;;1.70;99.90;;;;;;5085859;28;20297;-71
2023/01/22 07:18:27;;;;;;;8.20;3.37;;;1.70;99.90;;;;;;5078457;28;20214;-71
2023/01/22 07:20:53;;;;;;;3.60;2.53;;;1.70;99.90;;;;;;5065278;28;20560;-71
2023/01/22 07:23:19;;;;;;;3.20;2.50;;;1.70;99.90;;;;;;5096465;28;20217;-71
2023/01/22 07:25:45;;;;;;;2.27;2.00;;;1.70;99.90;;;;;;5082041;28;20234;-70
2023/01/22 07:28:13;;;;;;;3.57;2.67;;;1.70;99.90;;;;;;5098340;28;20213;-71
2023/01/22 07:30:41;;;;;;;3.93;2.23;;;1.70;99.90;;;;;;5076433;28;20539;-71
2023/01/22 07:33:09;;;;;;;4.00;2.40;;;1.70;99.90;;;;;;5056754;28;20446;-71
2023/01/22 07:35:34;;;;;;;5.20;3.07;;;1.70;99.90;;;;;;5069919;28;20475;-72
2023/01/22 07:38:00;;;;;;;2.73;2.37;;;1.70;99.90;;;;;;5105245;28;20447;-72
2023/01/22 07:40:27;;;;;;;2.57;2.37;;;1.70;99.90;;;;;;5106295;28;20214;-71
2023/01/22 07:42:53;;;;;;;3.43;2.83;;;1.70;99.90;;;;;;5062787;28;20448;-71
2023/01/22 07:45:20;;;;;;;3.43;2.40;;;1.70;99.90;;;;;;5068920;28;20492;-71
2023/01/22 07:47:58;;;;;;;3.33;3.03;;;1.70;99.90;;;;;;5076643;28;21052;-71
2023/01/22 07:50:28;;;;;;;4.50;3.00;;;1.70;99.90;;;;;;5081444;28;20461;-71
2023/01/22 07:52:54;;;;;;;2.93;2.10;;;1.70;99.90;;;;;;5085024;28;20460;-71
2023/01/22 07:55:20;;;;;;;5.47;3.03;;;1.70;99.90;;;;;;5086692;28;20455;-71
2023/01/22 07:57:46;;;;;;;4.10;3.13;;;1.80;99.90;;;;;;5066655;28;20442;-71
2023/01/22 08:00:14;;;;;;;3.37;2.50;;;1.80;99.90;;;;;;5086748;28;20464;-71
2023/01/22 08:02:41;;;;;;;4.50;3.07;;;1.80;99.90;;;;;;5077003;28;20217;-71
2023/01/22 08:05:09;;;;;;;7.07;3.00;;;1.70;99.90;;;;;;5061301;28;20476;-70
2023/01/22 08:07:34;;;;;;;2.87;2.60;;;1.70;99.90;;;;;;5074734;28;20444;-71
2023/01/22 08:10:00;;;;;;;2.97;2.47;;;1.70;99.90;;;;;;5085654;28;20887;-71
2023/01/22 08:12:26;;;;;;;3.90;2.50;;;1.80;99.90;;;;;;5070309;28;20229;-71
2023/01/22 08:14:51;;;;;;;4.90;3.07;;;1.70;99.90;;;;;;5086945;28;20207;-71
2023/01/22 08:17:17;;;;;;;3.43;2.57;;;1.80;99.90;;;;;;5087756;28;20245;-71
2023/01/22 08:19:43;;;;;;;3.97;2.30;;;1.80;99.90;;;;;;5079183;28;20210;-71
2023/01/22 08:22:08;;;;;;;3.30;2.70;;;1.80;99.90;;;;;;5072840;28;20266;-72
2023/01/22 08:24:34;;;;;;;4.13;2.40;;;1.80;99.90;;;;;;5070460;28;20233;-71
2023/01/22 08:27:00;;;;;;;4.33;2.70;;;1.80;99.90;;;;;;5063749;28;20213;-70
2023/01/22 08:29:26;;;;;;;5.50;2.60;;;1.80;99.90;;;;;;5079319;28;20211;-69
2023/01/22 08:31:54;;;;;;;3.50;3.03;;;1.80;99.90;;;;;;5085644;28;20464;-71
2023/01/22 08:34:21;;;;;;;3.03;2.00;;;1.80;99.90;;;;;;5089952;28;20230;-70
2023/01/22 08:36:46;;;;;;;3.47;2.43;;;1.80;99.90;;;;;;5092947;28;20456;-70
2023/01/22 08:39:12;;;;;;;8.20;2.57;;;1.80;99.90;;;;;;5096234;28;20457;-70
2023/01/22 08:41:39;;;;;;;4.57;2.80;;;1.80;99.90;;;;;;5094536;28;20269;-71
2023/01/22 08:44:05;;;;;;;3.83;2.57;;;1.80;99.90;;;;;;5080105;28;20222;-70
2023/01/22 08:46:31;;;;;;;2.67;2.37;;;1.80;99.90;;;;;;5098064;28;20475;-70
2023/01/22 08:48:57;;;;;;;4.53;3.33;;;1.80;99.90;;;;;;5074176;28;20461;-70
2023/01/22 08:51:23;;;;;;;3.23;2.90;;;1.90;99.90;;;;;;5072622;28;20718;-70
2023/01/22 08:53:52;;;;;;;4.97;3.40;;;1.90;99.90;;;;;;5078895;28;20667;-70
2023/01/22 08:56:18;;;;;;;2.77;2.57;;;1.80;99.90;;;;;;5092459;28;20472;-70
2023/01/22 08:58:46;;;;;;;3.80;3.07;;;1.80;99.90;;;;;;5086440;28;20484;-70
2023/01/22 09:01:17;;;;;;;5.63;3.47;;;1.90;99.90;;;;;;5057632;28;20706;-70
2023/01/22 09:03:43;;;;;;;2.83;2.50;;;1.90;99.90;;;;;;5078535;28;20473;-70
2023/01/22 09:06:09;;;;;;;2.83;2.53;;;1.90;99.90;;;;;;5069135;28;20492;-71
2023/01/22 09:08:34;;;;;;;5.03;3.20;;;1.90;99.90;;;;;;5066266;28;20211;-69
2023/01/22 09:11:03;;;;;;;3.80;3.07;;;1.90;99.90;;;;;;5085946;28;20490;-69
2023/01/22 09:13:28;;;;;;;5.83;2.70;;;1.90;99.90;;;;;;5079605;28;20306;-70
2023/01/22 09:15:55;;;;;;;10.43;3.67;;;1.90;99.90;;;;;;5054382;28;20596;-70
2023/01/22 09:18:21;;;;;;;3.13;2.83;;;1.90;99.90;;;;;;5078635;28;20219;-69
2023/01/22 09:20:47;;;;;;;3.80;3.33;;;1.90;99.90;;;;;;5089851;28;20465;-70
2023/01/22 09:23:13;;;;;;;3.33;2.47;;;1.90;99.90;;;;;;5070451;28;20247;-68
2023/01/22 09:25:38;;;;;;;4.40;2.70;;;1.90;99.90;;;;;;5093733;28;20218;-70
2023/01/22 09:28:07;;;;;;;3.60;2.70;;;1.90;99.90;;;;;;5071327;28;20286;-69
2023/01/22 09:30:34;;;;;;;3.40;2.57;;;1.90;99.90;;;;;;5084033;28;20210;-70
2023/01/22 09:33:00;;;;;;;3.10;2.57;;;2.00;99.90;;;;;;5065407;28;20515;-69
2023/01/22 09:35:26;;;;;;;2.47;2.03;;;2.00;99.90;;;;;;5059834;28;20970;-70
2023/01/22 09:37:52;;;;;;;4.80;3.30;;;2.00;99.90;;;;;;5049152;28;20214;-68
2023/01/22 09:40:26;;;;;;;5.97;3.00;;;2.00;99.90;;;;;;5072675;28;20472;-67
2023/01/22 09:42:56;;;;;;;4.90;3.17;;;2.00;99.90;;;;;;5070153;28;20453;-70
2023/01/22 09:45:25;;;;;;;3.93;2.57;;;2.00;99.90;;;;;;5068721;28;20458;-70
2023/01/22 09:47:57;;;;;;;3.23;2.40;;;2.00;99.90;;;;;;5088558;28;20532;-69
2023/01/22 09:50:26;;;;;;;4.47;3.17;;;2.10;99.90;;;;;;5066629;28;20466;-69
2023/01/22 09:52:56;;;;;;;2.73;2.50;;;2.10;99.90;;;;;;5077544;28;20473;-70
2023/01/22 09:55:26;;;;;;;3.50;2.27;;;2.10;99.90;;;;;;5073918;28;21132;-69
2023/01/22 09:57:54;;;;;;;5.70;2.80;;;2.10;99.90;;;;;;5090324;28;20464;-70
2023/01/22 10:00:25;;;;;;;4.20;2.77;;;2.10;99.90;;;;;;5067119;28;20461;-69
2023/01/22 10:03:02;;;;;;;3.57;2.40;;;2.10;99.90;;;;;;5056165;28;20474;-70
2023/01/22 10:05:45;;;;;;;6.67;2.50;;;2.10;99.90;;;;;;5069597;28;20461;-69
2023/01/22 10:08:15;;;;;;;3.47;2.00;;;2.10;99.90;;;;;;5074728;28;20505;-70
2023/01/22 10:10:41;;;;;;;4.77;3.30;;;2.10;99.90;;;;;;5067591;28;20437;-70
2023/01/22 10:13:10;;;;;;;6.00;3.87;;;2.20;99.90;;;;;;5069168;28;20505;-68
2023/01/22 10:15:36;;;;;;;4.50;2.77;;;2.20;99.90;;;;;;5086101;28;20461;-70
2023/01/22 10:18:13;;;;;;;4.23;3.23;;;2.20;99.90;;;;;;5077688;28;20587;-70
2023/01/22 10:20:39;;;;;;;4.63;3.07;;;2.20;99.90;;;;;;5052909;28;20471;-70
2023/01/22 10:23:17;;;;;;;3.17;2.87;;;2.20;99.90;;;;;;5083858;28;21047;-69
2023/01/22 10:25:43;;;;;;;3.50;2.90;;;2.20;99.90;;;;;;5061946;28;20463;-70
2023/01/22 10:28:09;;;;;;;2.93;2.70;;;2.20;99.90;;;;;;5083830;28;20463;-70
2023/01/22 10:30:48;;;;;;;5.10;2.90;;;2.20;99.90;;;;;;5089691;28;20521;-70
2023/01/22 10:33:21;;;;;;;3.17;2.40;;;2.30;99.90;;;;;;5086083;28;20471;-70
2023/01/22 10:35:49;;;;;;;3.43;3.00;;;2.30;99.90;;;;;;5072965;28;20817;-69
2023/01/22 10:38:25;;;;;;;3.70;2.80;;;2.20;99.90;;;;;;5074416;28;20473;-67
2023/01/22 10:40:57;;;;;;;4.17;3.27;;;2.30;99.90;;;;;;5070029;28;20505;-70
2023/01/22 10:43:33;;;;;;;3.23;2.70;;;2.30;99.90;;;;;;5058445;28;20473;-70
2023/01/22 10:46:14;;;;;;;4.70;3.43;;;2.30;99.90;;;;;;5086076;28;20491;-70
2023/01/22 10:48:40;;;;;;;4.40;3.67;;;2.30;99.90;;;;;;5087997;28;20459;-69
2023/01/22 10:51:15;;;;;;;3.50;3.00;;;2.30;99.90;;;;;;5066275;28;20556;-68
2023/01/22 10:53:51;;;;;;;3.83;3.03;;;2.40;99.90;;;;;;5082891;28;20221;-70
2023/01/22 10:56:30;;;;;;;4.77;3.43;;;2.30;99.90;;;;;;5065782;28;20468;-70
2023/01/22 10:58:57;;;;;;;5.33;3.37;;;2.40;99.90;;;;;;5093846;28;21133;-70
2023/01/22 11:01:35;;;;;;;4.13;3.70;;;2.40;99.90;;;;;;5075761;28;20534;-70
2023/01/22 11:04:12;;;;;;;3.93;2.67;;;2.40;99.90;;;;;;5074920;28;20499;-68
2023/01/22 11:06:45;;;;;;;3.90;3.40;;;2.40;99.90;;;;;;5080091;28;20578;-70
2023/01/22 11:09:20;;;;;;;3.00;2.70;;;2.40;99.90;;;;;;5086005;28;20472;-70
2023/01/22 11:11:57;;;;;;;3.20;2.80;;;2.40;99.90;;;;;;5085430;28;20467;-69
2023/01/22 11:14:34;;;;;;;2.93;2.60;;;2.40;99.90;;;;;;5056357;28;20461;-70
2023/01/22 11:17:18;;;;;;;3.63;2.30;;;2.40;99.90;;;;;;5083727;28;21044;-70
2023/01/22 11:19:55;;;;;;;3.37;2.70;;;2.50;99.90;;;;;;5065599;28;20449;-70
2023/01/22 11:22:27;;;;;;;2.80;2.43;;;2.50;99.90;;;;;;5075498;28;20460;-70
2023/01/22 11:24:53;;;;;;;2.53;2.33;;;2.40;99.90;;;;;;5069495;28;20456;-69
2023/01/22 11:28:01;;;;;;;3.37;2.67;;;2.50;99.90;;;;;;5082981;28;20456;-70
2023/01/22 11:30:46;;;;;;;1.67;1.57;;;2.50;99.90;;;;;;5062863;28;20223;-72
2023/01/22 11:33:36;;;;;;;4.77;2.60;;;2.50;99.90;;;;;;5078676;28;20472;-70
2023/01/22 11:36:11;;;;;;;2.77;2.43;;;2.50;99.90;;;;;;5044600;28;20464;-69
2023/01/22 11:39:24;;;;;;;3.17;2.10;;;2.40;99.90;;;;;;5075453;28;20466;-70
2023/01/22 11:42:04;;;;;;;4.00;3.10;;;2.50;99.90;;;;;;5066193;28;21029;-70
2023/01/22 11:45:19;;;;;;;4.90;2.70;;;2.50;99.90;;;;;;5058398;28;20561;-70
2023/01/22 11:48:18;;;;;;;3.90;2.30;;;2.50;99.90;;;;;;5067619;28;20496;-70
2023/01/22 11:51:21;;;;;;;3.50;2.83;;;2.50;99.90;;;;;;5084813;28;20460;-69
2023/01/22 11:54:18;;;;;;;4.70;2.83;;;2.50;99.90;;;;;;5056937;28;20863;-68
2023/01/22 11:56:53;;;;;;;5.70;2.57;;;2.60;99.90;;;;;;5085214;28;20467;-68
2023/01/22 11:59:19;;;;;;;4.33;2.60;;;2.60;99.90;;;;;;5077350;28;20598;-68
2023/01/22 12:02:01;;;;;;;4.70;2.87;;;2.60;99.90;;;;;;5063928;28;20469;-70
2023/01/22 12:04:49;;;;;;;2.63;2.30;;;2.60;99.90;;;;;;5052062;28;20250;-70
2023/01/22 12:07:51;;;;;;;6.03;2.80;;;2.60;99.90;;;;;;5049862;28;20450;-68
2023/01/22 12:10:32;;;;;;;3.63;3.20;;;2.60;99.90;;;;;;5062952;28;20953;-71
2023/01/22 12:13:05;;;;;;;5.03;2.90;;;2.60;99.90;;;;;;5074940;28;20529;-70
2023/01/22 12:15:38;;;;;;;3.13;2.40;;;2.60;99.90;;;;;;5085499;28;20461;-70
2023/01/22 12:18:21;;;;;;;3.70;2.40;;;2.60;99.90;;;;;;5075972;28;20453;-68
2023/01/22 12:21:01;;;;;;;2.90;2.57;;;2.60;99.90;;;;;;5083459;28;20469;-68
2023/01/22 12:23:35;;;;;;;3.80;2.70;;;2.60;99.90;;;;;;5088814;28;20563;-70
2023/01/22 12:26:08;;;;;;;3.87;2.67;;;2.60;99.90;;;;;;5087710;28;20482;-69
2023/01/22 12:28:51;;;;;;;2.47;2.13;;;2.70;99.90;;;;;;5053808;28;20456;-70
2023/01/22 12:31:28;;;;;;;3.50;2.60;;;2.70;99.90;;;;;;5088335;28;20532;-69
2023/01/22 12:33:56;;;;;;;2.63;2.17;;;2.70;99.90;;;;;;5083971;28;20491;-69
2023/01/22 12:36:23;;;;;;;3.03;2.33;;;2.70;99.90;;;;;;5073862;28;20461;-69
2023/01/22 12:38:52;;;;;;;3.13;2.70;;;2.70;99.90;;;;;;5040529;28;20818;-69
2023/01/22 12:41:43;;;;;;;3.07;2.40;;;2.70;99.90;;;;;;5049150;28;20465;-70
2023/01/22 12:44:26;;;;;;;2.97;2.07;;;2.70;99.90;;;;;;5094123;28;20460;-69
2023/01/22 12:47:01;;;;;;;2.83;2.37;;;2.70;99.90;;;;;;5082494;28;20527;-69
2023/01/22 12:49:27;;;;;;;2.93;2.57;;;2.70;99.90;;;;;;5072255;28;20453;-69
2023/01/22 12:51:54;;;;;;;4.50;2.27;;;2.70;99.90;;;;;;5058397;28;20471;-69
2023/01/22 12:54:20;;;;;;;2.37;1.97;;;2.70;99.90;;;;;;5080546;28;20210;-68
2023/01/22 12:56:48;;;;;;;2.70;2.10;;;2.70;99.90;;;;;;5069006;28;20453;-68
2023/01/22 12:59:42;;;;;;;4.27;2.80;;;2.70;99.90;;;;;;5075245;28;20230;-68
2023/01/22 13:02:22;;;;;;;4.13;2.77;;;2.70;99.90;;;;;;5069475;28;20940;-67
2023/01/22 13:04:49;;;;;;;3.37;2.90;;;2.70;99.90;;;;;;5067457;28;20456;-70
2023/01/22 13:07:39;;;;;;;3.30;2.80;;;2.70;99.90;;;;;;5069094;28;20450;-68
2023/01/22 13:10:23;;;;;;;3.40;2.83;;;2.70;99.90;;;;;;5093362;28;20455;-68
2023/01/22 13:12:52;;;;;;;5.20;3.20;;;2.70;99.90;;;;;;5068964;28;20515;-69
2023/01/22 13:15:36;;;;;;;5.63;4.03;;;2.70;99.90;;;;;;5081033;28;20444;-68
2023/01/22 13:18:24;;;;;;;5.57;2.70;;;2.70;99.90;;;;;;5051762;28;20466;-69
2023/01/22 13:21:04;;;;;;;5.43;3.90;;;2.70;99.90;;;;;;5068867;28;20458;-68